createdAt,value
2018-06-01T00:00:34.537Z,23.80
2018-06-01T00:03:02.163Z,23.80
2018-06-01T00:05:29.679Z,23.80
2018-06-01T00:07:58.099Z,23.80
2018-06-01T00:10:25.605Z,23.80
2018-06-01T00:12:53.280Z,23.70
2018-06-01T00:15:20.773Z,23.70
2018-06-01T00:17:49.073Z,23.60
2018-06-01T00:20:17.346Z,23.60
2018-06-01T00:22:46.326Z,23.50
2018-06-01T00:25:15.417Z,23.40
2018-06-01T00:27:42.862Z,23.40
2018-06-01T00:30:10.352Z,23.30
2018-06-01T00:32:38.642Z,23.20
2018-06-01T00:35:06.944Z,23.20
2018-06-01T00:37:34.438Z,23.20
2018-06-01T00:40:02.050Z,23.20
2018-06-01T00:42:29.630Z,23.20
2018-06-01T00:44:57.181Z,23.10
2018-06-01T00:47:25.435Z,23.10
2018-06-01T00:49:52.954Z,23.00
2018-06-01T00:52:20.872Z,23.00
2018-06-01T00:55:01.863Z,22.90
2018-06-01T00:57:30.136Z,22.90
2018-06-01T00:59:58.404Z,22.80
2018-06-01T01:02:26.674Z,22.70
2018-06-01T01:04:54.264Z,22.70
2018-06-01T01:07:22.549Z,22.60
2018-06-01T01:09:50.856Z,22.60
2018-06-01T01:12:18.422Z,22.50
2018-06-01T01:14:45.923Z,22.50
2018-06-01T01:17:13.411Z,22.50
2018-06-01T01:19:41.316Z,22.40
2018-06-01T01:22:09.019Z,22.40
2018-06-01T01:24:36.546Z,22.30
2018-06-01T01:27:04.946Z,22.30
2018-06-01T01:29:33.550Z,22.20
2018-06-01T01:32:01.043Z,22.10
2018-06-01T01:34:28.647Z,22.10
2018-06-01T01:36:56.139Z,22.00
2018-06-01T01:39:23.924Z,22.00
2018-06-01T01:41:52.100Z,21.90
2018-06-01T01:44:19.628Z,21.90
2018-06-01T01:46:47.148Z,21.80
2018-06-01T01:49:14.755Z,21.80
2018-06-01T01:51:42.249Z,21.70
2018-06-01T01:54:09.806Z,21.70
2018-06-01T01:56:37.368Z,21.70
2018-06-01T01:59:04.884Z,21.60
2018-06-01T02:01:33.433Z,21.60
2018-06-01T02:04:00.953Z,21.50
2018-06-01T02:06:28.433Z,21.50
2018-06-01T02:08:56.087Z,21.60
2018-06-01T02:11:24.452Z,21.50
2018-06-01T02:13:53.453Z,21.40
2018-06-01T02:16:21.719Z,21.40
2018-06-01T02:18:49.972Z,21.40
2018-06-01T02:21:18.904Z,21.40
2018-06-01T02:23:47.231Z,21.40
2018-06-01T02:26:14.774Z,21.40
2018-06-01T02:28:43.821Z,21.40
2018-06-01T02:31:11.341Z,21.30
2018-06-01T02:33:39.388Z,21.40
2018-06-01T02:36:07.104Z,21.40
2018-06-01T02:38:34.946Z,21.40
2018-06-01T02:41:03.816Z,21.40
2018-06-01T02:43:32.092Z,21.40
2018-06-01T02:46:00.358Z,21.40
2018-06-01T02:48:27.945Z,21.40
2018-06-01T02:50:56.210Z,21.40
2018-06-01T02:53:24.068Z,21.40
2018-06-01T02:55:52.345Z,21.40
2018-06-01T02:58:19.842Z,21.40
2018-06-01T03:00:48.234Z,21.50
2018-06-01T03:03:16.122Z,21.40
2018-06-01T03:05:43.804Z,21.50
2018-06-01T03:08:11.352Z,21.50
2018-06-01T03:10:38.870Z,21.50
2018-06-01T03:13:06.484Z,21.50
2018-06-01T03:15:35.096Z,21.50
2018-06-01T03:18:02.584Z,21.50
2018-06-01T03:20:30.172Z,21.50
2018-06-01T03:22:58.420Z,21.50
2018-06-01T03:25:26.907Z,21.50
2018-06-01T03:27:54.401Z,21.50
2018-06-01T03:30:22.674Z,21.50
2018-06-01T03:32:50.930Z,21.50
2018-06-01T03:35:18.448Z,21.50
2018-06-01T03:37:45.974Z,21.50
2018-06-01T03:40:13.558Z,21.60
2018-06-01T03:42:41.841Z,21.60
2018-06-01T03:45:09.365Z,21.60
2018-06-01T03:47:36.862Z,21.60
2018-06-01T03:50:05.349Z,21.70
2018-06-01T03:52:34.401Z,21.70
2018-06-01T03:55:01.939Z,21.70
2018-06-01T03:57:29.594Z,21.70
2018-06-01T03:59:57.140Z,21.70
2018-06-01T04:02:25.424Z,21.80
2018-06-01T04:04:53.014Z,21.80
2018-06-01T04:07:20.566Z,21.80
2018-06-01T04:09:48.508Z,21.80
2018-06-01T04:12:16.815Z,21.90
2018-06-01T04:14:45.090Z,22.00
2018-06-01T04:17:13.362Z,22.00
2018-06-01T04:19:41.618Z,22.10
2018-06-01T04:22:09.135Z,22.10
2018-06-01T04:24:37.441Z,22.20
2018-06-01T04:27:05.067Z,22.20
2018-06-01T04:29:34.387Z,22.40
2018-06-01T04:32:01.893Z,22.30
2018-06-01T04:34:29.497Z,22.40
2018-06-01T04:36:57.791Z,22.60
2018-06-01T04:39:25.309Z,22.50
2018-06-01T04:41:52.805Z,22.60
2018-06-01T04:44:21.183Z,22.80
2018-06-01T04:46:49.453Z,23.10
2018-06-01T04:49:18.389Z,23.80
2018-06-01T04:51:45.872Z,23.80
2018-06-01T04:54:13.383Z,24.80
2018-06-01T04:56:41.693Z,26.30
2018-06-01T04:59:09.284Z,26.20
2018-06-01T05:01:37.153Z,26.90
2018-06-01T05:04:04.657Z,27.50
2018-06-01T05:06:33.064Z,28.20
2018-06-01T05:09:00.544Z,28.20
2018-06-01T05:11:28.054Z,28.20
2018-06-01T05:13:56.381Z,28.20
2018-06-01T05:16:23.950Z,28.30
2018-06-01T05:18:51.447Z,28.30
2018-06-01T05:21:18.971Z,28.50
2018-06-01T05:23:46.691Z,28.90
2018-06-01T05:26:14.485Z,29.40
2018-06-01T05:28:42.765Z,29.80
2018-06-01T05:31:11.037Z,30.00
2018-06-01T05:33:39.349Z,30.00
2018-06-01T05:36:06.882Z,30.00
2018-06-01T05:38:35.139Z,29.80
2018-06-01T05:41:02.684Z,29.80
2018-06-01T05:43:30.199Z,29.60
2018-06-01T05:45:58.477Z,29.70
2018-06-01T05:48:26.783Z,29.90
2018-06-01T05:50:54.345Z,29.90
2018-06-01T05:53:22.022Z,30.00
2018-06-01T05:55:49.561Z,29.80
2018-06-01T05:58:18.415Z,29.90
2018-06-01T06:00:45.950Z,29.90
2018-06-01T06:03:13.466Z,30.20
2018-06-01T06:05:41.675Z,30.00
2018-06-01T06:08:09.256Z,30.00
2018-06-01T06:10:37.954Z,30.00
2018-06-01T06:13:06.177Z,30.10
2018-06-01T06:15:34.483Z,29.80
2018-06-01T06:18:02.035Z,29.80
2018-06-01T06:20:31.015Z,29.90
2018-06-01T06:22:59.165Z,29.90
2018-06-01T06:25:26.699Z,30.00
2018-06-01T06:27:54.218Z,30.30
2018-06-01T06:30:21.735Z,30.40
2018-06-01T06:32:49.299Z,30.30
2018-06-01T06:35:17.154Z,30.40
2018-06-01T06:37:45.097Z,30.30
2018-06-01T06:40:12.580Z,30.30
2018-06-01T06:42:40.878Z,30.10
2018-06-01T06:45:08.385Z,30.10
2018-06-01T06:47:36.363Z,30.00
2018-06-01T06:50:03.901Z,29.80
2018-06-01T06:52:31.548Z,29.90
2018-06-01T06:54:59.104Z,30.00
2018-06-01T06:57:26.735Z,30.10
2018-06-01T06:59:54.241Z,30.20
2018-06-01T07:02:21.748Z,30.30
2018-06-01T07:04:49.403Z,30.40
2018-06-01T07:07:16.945Z,30.40
2018-06-01T07:09:44.455Z,30.20
2018-06-01T07:12:13.501Z,30.50
2018-06-01T07:14:41.014Z,30.50
2018-06-01T07:17:08.545Z,30.80
2018-06-01T07:19:36.022Z,31.10
2018-06-01T07:22:03.547Z,31.20
2018-06-01T07:24:31.309Z,31.40
2018-06-01T07:26:59.599Z,31.40
2018-06-01T07:29:27.165Z,31.40
2018-06-01T07:31:54.656Z,31.40
2018-06-01T07:34:22.236Z,31.40
2018-06-01T07:36:49.924Z,31.40
2018-06-01T07:39:17.487Z,31.40
2018-06-01T07:41:45.758Z,31.40
2018-06-01T07:44:14.188Z,31.50
2018-06-01T07:46:41.916Z,31.40
2018-06-01T07:49:10.222Z,31.20
2018-06-01T07:51:38.341Z,31.20
2018-06-01T07:54:05.824Z,31.30
2018-06-01T07:56:33.354Z,31.40
2018-06-01T07:59:00.875Z,31.40
2018-06-01T08:01:28.457Z,31.60
2018-06-01T08:03:56.035Z,31.60
2018-06-01T08:06:23.532Z,31.60
2018-06-01T08:08:51.178Z,31.70
2018-06-01T08:11:19.348Z,31.60
2018-06-01T08:13:47.240Z,31.50
2018-06-01T08:16:14.780Z,31.50
2018-06-01T08:18:42.342Z,31.60
2018-06-01T08:21:09.884Z,31.50
2018-06-01T08:23:38.252Z,31.20
2018-06-01T08:26:05.855Z,31.20
2018-06-01T08:28:33.367Z,31.10
2018-06-01T08:31:00.876Z,30.90
2018-06-01T08:33:28.376Z,30.90
2018-06-01T08:35:55.901Z,30.90
2018-06-01T08:38:23.459Z,30.90
2018-06-01T08:40:50.983Z,30.90
2018-06-01T08:43:18.502Z,31.00
2018-06-01T08:45:46.095Z,30.90
2018-06-01T08:48:13.729Z,30.80
2018-06-01T08:50:41.431Z,30.80
2018-06-01T08:53:09.067Z,30.80
2018-06-01T08:55:37.346Z,30.80
2018-06-01T08:58:04.880Z,30.80
2018-06-01T09:00:33.165Z,30.90
2018-06-01T09:03:02.071Z,30.90
2018-06-01T09:05:31.652Z,30.90
2018-06-01T09:07:59.963Z,30.90
2018-06-01T09:10:27.623Z,30.90
2018-06-01T09:12:56.608Z,31.00
2018-06-01T09:15:26.868Z,31.00
2018-06-01T09:17:54.424Z,31.00
2018-06-01T09:20:22.889Z,31.20
2018-06-01T09:22:52.750Z,31.60
2018-06-01T09:25:20.267Z,31.60
2018-06-01T09:27:48.556Z,32.00
2018-06-01T09:30:16.875Z,32.10
2018-06-01T09:32:45.385Z,32.10
2018-06-01T09:35:15.169Z,32.20
2018-06-01T09:37:42.723Z,32.40
2018-06-01T09:40:12.049Z,32.40
2018-06-01T09:42:39.593Z,32.30
2018-06-01T09:45:08.843Z,31.90
2018-06-01T09:47:36.327Z,32.10
2018-06-01T09:50:04.606Z,31.90
2018-06-01T09:52:32.913Z,31.90
2018-06-01T09:55:03.205Z,31.90
2018-06-01T09:57:31.189Z,31.90
2018-06-01T09:59:58.703Z,31.80
2018-06-01T10:02:26.223Z,31.80
2018-06-01T10:04:55.243Z,31.70
2018-06-01T10:07:22.811Z,31.60
2018-06-01T10:09:55.992Z,31.60
2018-06-01T10:12:23.529Z,31.60
2018-06-01T10:14:51.068Z,31.60
2018-06-01T10:17:18.711Z,31.70
2018-06-01T10:19:47.603Z,31.80
2018-06-01T10:22:15.160Z,31.90
2018-06-01T10:24:42.824Z,32.00
2018-06-01T10:27:11.407Z,32.10
2018-06-01T10:29:38.967Z,32.30
2018-06-01T10:32:06.497Z,32.30
2018-06-01T10:34:34.085Z,32.40
2018-06-01T10:37:02.325Z,32.50
2018-06-01T10:39:29.882Z,32.50
2018-06-01T10:41:57.379Z,32.70
2018-06-01T10:44:25.690Z,33.30
2018-06-01T10:46:53.205Z,33.20
2018-06-01T10:49:20.711Z,33.60
2018-06-01T10:51:48.711Z,33.90
2018-06-01T10:56:51.913Z,34.30
2018-06-01T10:59:20.330Z,34.40
2018-06-01T11:01:48.631Z,34.30
2018-06-01T11:04:16.236Z,34.20
2018-06-01T11:06:43.894Z,34.20
2018-06-01T11:09:12.845Z,33.90
2018-06-01T11:11:40.602Z,33.80
2018-06-01T11:14:08.105Z,33.50
2018-06-01T11:16:36.382Z,32.70
2018-06-01T11:19:04.656Z,32.60
2018-06-01T11:21:32.274Z,32.50
2018-06-01T11:23:59.807Z,32.50
2018-06-01T11:26:29.483Z,32.30
2018-06-01T11:28:57.079Z,32.20
2018-06-01T11:31:26.004Z,32.40
2018-06-01T11:33:54.620Z,31.90
2018-06-01T11:36:22.912Z,31.80
2018-06-01T11:38:50.539Z,31.90
2018-06-01T11:41:18.198Z,31.90
2018-06-01T11:43:45.702Z,31.90
2018-06-01T11:46:13.388Z,31.90
2018-06-01T11:48:41.611Z,31.90
2018-06-01T11:51:09.142Z,31.90
2018-06-01T11:53:37.446Z,31.90
2018-06-01T11:56:04.963Z,31.80
2018-06-01T11:58:32.487Z,31.90
2018-06-01T12:01:00.885Z,31.90
2018-06-01T12:03:28.412Z,31.90
2018-06-01T12:05:56.682Z,32.00
2018-06-01T12:08:24.934Z,32.00
2018-06-01T12:10:52.531Z,31.90
2018-06-01T12:13:20.823Z,32.00
2018-06-01T12:15:48.679Z,32.00
2018-06-01T12:18:17.828Z,32.10
2018-06-01T12:20:45.488Z,32.10
2018-06-01T12:23:13.086Z,32.20
2018-06-01T12:25:40.592Z,32.10
2018-06-01T12:28:08.116Z,32.30
2018-06-01T12:30:35.730Z,32.40
2018-06-01T12:33:04.092Z,32.50
2018-06-01T12:35:32.378Z,32.90
2018-06-01T12:38:00.649Z,33.00
2018-06-01T12:40:29.793Z,33.10
2018-06-01T12:42:57.305Z,33.10
2018-06-01T12:45:25.606Z,33.40
2018-06-01T12:47:53.885Z,33.40
2018-06-01T12:50:22.148Z,33.50
2018-06-01T12:52:50.493Z,33.80
2018-06-01T12:55:18.033Z,33.80
2018-06-01T12:57:45.579Z,34.10
2018-06-01T13:00:13.872Z,34.60
2018-06-01T13:02:41.453Z,34.60
2018-06-01T13:05:08.978Z,34.70
2018-06-01T13:07:37.257Z,34.60
2018-06-01T13:10:05.510Z,34.40
2018-06-01T13:12:33.011Z,34.40
2018-06-01T13:15:01.247Z,34.30
2018-06-01T13:17:28.769Z,34.30
2018-06-01T13:19:56.251Z,34.40
2018-06-01T13:22:23.771Z,34.50
2018-06-01T13:24:52.077Z,34.50
2018-06-01T13:27:19.647Z,34.50
2018-06-01T13:29:47.220Z,34.60
2018-06-01T13:32:14.933Z,34.70
2018-06-01T13:34:42.427Z,34.90
2018-06-01T13:37:09.919Z,35.10
2018-06-01T13:39:37.410Z,35.30
2018-06-01T13:42:04.927Z,35.50
2018-06-01T13:44:32.431Z,35.70
2018-06-01T13:46:59.942Z,35.80
2018-06-01T13:49:28.269Z,36.00
2018-06-01T13:51:55.889Z,35.90
2018-06-01T13:54:23.435Z,35.80
2018-06-01T13:56:52.634Z,35.70
2018-06-01T13:59:20.916Z,35.60
2018-06-01T14:01:49.232Z,35.50
2018-06-01T14:04:16.769Z,35.50
2018-06-01T14:06:45.697Z,35.20
2018-06-01T14:09:13.332Z,35.20
2018-06-01T14:11:41.597Z,35.00
2018-06-01T14:14:09.878Z,34.50
2018-06-01T14:16:38.163Z,34.00
2018-06-01T14:19:05.764Z,34.00
2018-06-01T14:21:33.764Z,33.70
2018-06-01T14:24:01.357Z,33.50
2018-06-01T14:26:28.853Z,33.40
2018-06-01T14:28:56.615Z,33.20
2018-06-01T14:31:24.917Z,32.70
2018-06-01T14:33:52.423Z,32.60
2018-06-01T14:36:20.054Z,32.30
2018-06-01T14:38:47.722Z,32.10
2018-06-01T14:41:16.287Z,32.20
2018-06-01T14:43:43.830Z,32.20
2018-06-01T14:46:12.197Z,32.10
2018-06-01T14:48:40.109Z,32.10
2018-06-01T14:51:07.630Z,31.90
2018-06-01T14:53:35.148Z,31.70
2018-06-01T14:56:03.352Z,31.50
2018-06-01T14:58:31.096Z,31.20
2018-06-01T15:00:59.507Z,31.10
2018-06-01T15:03:27.033Z,31.10
2018-06-01T15:05:54.559Z,31.10
2018-06-01T15:08:22.077Z,31.10
2018-06-01T15:10:51.144Z,30.90
2018-06-01T15:13:19.757Z,30.50
2018-06-01T15:15:47.252Z,30.50
2018-06-01T15:18:14.781Z,30.50
2018-06-01T15:20:42.263Z,30.60
2018-06-01T15:23:09.762Z,30.50
2018-06-01T15:25:37.254Z,30.30
2018-06-01T15:28:04.832Z,30.10
2018-06-01T15:30:32.363Z,30.00
2018-06-01T15:33:00.686Z,30.10
2018-06-01T15:35:28.283Z,30.00
2018-06-01T15:37:55.998Z,30.00
2018-06-01T15:40:23.504Z,30.00
2018-06-01T15:42:51.927Z,30.10
2018-06-01T15:45:20.183Z,29.80
2018-06-01T15:47:48.611Z,29.70
2018-06-01T15:50:16.869Z,29.20
2018-06-01T15:52:44.424Z,29.20
2018-06-01T15:55:12.647Z,29.00
2018-06-01T15:57:40.191Z,28.60
2018-06-01T16:00:08.512Z,26.50
2018-06-01T16:02:36.782Z,26.40
2018-06-01T16:05:04.360Z,26.10
2018-06-01T16:07:31.877Z,26.20
2018-06-01T16:10:00.138Z,26.30
2018-06-01T16:12:29.803Z,25.40
2018-06-01T16:14:58.050Z,24.70
2018-06-01T16:17:26.362Z,24.30
2018-06-01T16:19:53.966Z,24.20
2018-06-01T16:22:21.896Z,24.10
2018-06-01T16:24:49.402Z,24.00
2018-06-01T16:27:16.919Z,23.90
2018-06-01T16:29:45.025Z,23.80
2018-06-01T16:32:12.532Z,23.90
2018-06-01T16:34:41.270Z,24.10
2018-06-01T16:37:09.070Z,24.10
2018-06-01T16:39:37.142Z,24.30
2018-06-01T16:42:04.662Z,24.60
2018-06-01T16:44:32.207Z,24.80
2018-06-01T16:47:00.502Z,24.70
2018-06-01T16:49:28.007Z,24.70
2018-06-01T16:51:55.605Z,24.60
2018-06-01T16:54:23.912Z,24.40
2018-06-01T16:56:52.157Z,24.30
2018-06-01T16:59:19.781Z,24.30
2018-06-01T17:01:47.767Z,24.20
2018-06-01T17:04:15.279Z,24.00
2018-06-01T17:06:43.657Z,23.80
2018-06-01T17:09:11.949Z,23.50
2018-06-01T17:11:40.215Z,23.00
2018-06-01T17:14:07.854Z,22.90
2018-06-01T17:16:35.354Z,22.50
2018-06-01T17:19:03.751Z,22.00
2018-06-01T17:21:31.296Z,21.90
2018-06-01T17:23:59.573Z,21.90
2018-06-01T17:26:27.863Z,21.90
2018-06-01T17:28:56.162Z,21.90
2018-06-01T17:31:23.684Z,21.90
2018-06-01T17:33:51.247Z,21.90
2018-06-01T17:36:18.771Z,21.80
2018-06-01T17:38:46.291Z,21.80
2018-06-01T17:41:14.569Z,21.90
2018-06-01T17:43:42.096Z,21.90
2018-06-01T17:46:10.151Z,21.90
2018-06-01T17:48:37.658Z,21.90
2018-06-01T17:51:05.151Z,21.90
2018-06-01T17:53:33.437Z,21.80
2018-06-01T17:56:00.931Z,21.80
2018-06-01T17:58:28.482Z,21.80
2018-06-01T18:00:56.080Z,21.80
2018-06-01T18:03:23.631Z,21.70
2018-06-01T18:05:51.372Z,21.60
2018-06-01T18:08:19.143Z,21.60
2018-06-01T18:10:46.977Z,21.60
2018-06-01T18:13:14.552Z,21.60
2018-06-01T18:15:42.863Z,21.50
2018-06-01T18:18:10.601Z,21.40
2018-06-01T18:20:38.898Z,21.30
2018-06-01T18:23:06.464Z,21.30
2018-06-01T18:25:34.086Z,21.30
2018-06-01T18:28:01.905Z,21.20
2018-06-01T18:30:29.441Z,21.20
2018-06-01T18:32:56.961Z,21.20
2018-06-01T18:35:24.507Z,21.20
2018-06-01T18:37:52.400Z,21.10
2018-06-01T18:40:19.926Z,21.10
2018-06-01T18:42:48.341Z,21.20
2018-06-01T18:45:15.903Z,21.20
2018-06-01T18:47:43.433Z,21.20
2018-06-01T18:50:11.726Z,21.30
2018-06-01T18:52:40.027Z,21.30
2018-06-01T18:55:08.177Z,21.40
2018-06-01T18:57:35.709Z,21.30
2018-06-01T19:00:03.251Z,21.40
2018-06-01T19:02:30.779Z,21.50
2018-06-01T19:04:58.305Z,21.60
2018-06-01T19:07:25.905Z,21.70
2018-06-01T19:09:53.451Z,21.70
2018-06-01T19:12:21.717Z,21.60
2018-06-01T19:14:49.448Z,21.60
2018-06-01T19:17:16.960Z,21.70
2018-06-01T19:19:45.358Z,21.70
2018-06-01T19:22:13.687Z,21.70
2018-06-01T19:24:41.208Z,21.70
2018-06-01T19:27:08.716Z,21.70
2018-06-01T19:29:36.350Z,21.70
2018-06-01T19:32:04.401Z,21.70
2018-06-01T19:34:31.994Z,21.70
2018-06-01T19:37:00.228Z,21.80
2018-06-01T19:39:27.745Z,21.80
2018-06-01T19:41:56.779Z,21.80
2018-06-01T19:44:24.296Z,21.80
2018-06-01T19:46:51.897Z,21.90
2018-06-01T19:49:19.412Z,21.80
2018-06-01T19:51:47.569Z,21.80
2018-06-01T19:54:15.890Z,21.70
2018-06-01T19:56:43.399Z,21.60
2018-06-01T19:59:10.995Z,21.60
2018-06-01T20:01:39.280Z,21.60
2018-06-01T20:04:07.592Z,21.60
2018-06-01T20:06:35.628Z,21.50
2018-06-01T20:09:03.938Z,21.50
2018-06-01T20:11:31.592Z,21.50
2018-06-01T20:13:59.104Z,21.50
2018-06-01T20:16:27.306Z,21.40
2018-06-01T20:18:55.648Z,21.40
2018-06-01T20:21:23.385Z,21.40
2018-06-01T20:23:50.993Z,21.50
2018-06-01T20:26:18.533Z,21.50
2018-06-01T20:28:46.283Z,21.40
2018-06-01T20:31:14.256Z,21.50
2018-06-01T20:33:41.750Z,21.40
2018-06-01T20:36:09.404Z,21.40
2018-06-01T20:38:37.866Z,21.40
2018-06-01T20:41:05.872Z,21.40
2018-06-01T20:43:33.411Z,21.40
2018-06-01T20:46:00.975Z,21.40
2018-06-01T20:48:28.575Z,21.40
2018-06-01T20:50:56.174Z,21.40
2018-06-01T20:53:24.073Z,21.40
2018-06-01T20:55:51.598Z,21.40
2018-06-01T20:58:19.861Z,21.40
2018-06-01T21:00:47.393Z,21.40
2018-06-01T21:03:14.908Z,21.40
2018-06-01T21:05:42.517Z,21.40
2018-06-01T21:08:10.050Z,21.40
2018-06-01T21:10:38.334Z,21.40
2018-06-01T21:13:06.595Z,21.30
2018-06-01T21:15:34.925Z,21.30
2018-06-01T21:18:02.429Z,21.30
2018-06-01T21:20:29.933Z,21.30
2018-06-01T21:22:58.225Z,21.30
2018-06-01T21:25:25.794Z,21.30
2018-06-01T21:27:53.386Z,21.30
2018-06-01T21:30:21.420Z,21.30
2018-06-01T21:32:49.693Z,21.40
2018-06-01T21:35:18.109Z,21.40
2018-06-01T21:37:45.665Z,21.40
2018-06-01T21:40:13.181Z,21.40
2018-06-01T21:42:40.672Z,21.40
2018-06-01T21:45:08.963Z,21.40
2018-06-01T21:47:36.881Z,21.40
2018-06-01T21:50:04.618Z,21.40
2018-06-01T21:52:32.151Z,21.40
2018-06-01T21:55:00.435Z,21.40
2018-06-01T21:57:28.709Z,21.40
2018-06-01T21:59:56.999Z,21.40
2018-06-01T22:02:25.305Z,21.30
2018-06-01T22:04:52.800Z,21.30
2018-06-01T22:07:20.395Z,21.30
2018-06-01T22:09:48.987Z,21.20
2018-06-01T22:12:16.509Z,21.20
2018-06-01T22:14:44.301Z,21.20
2018-06-01T22:17:11.815Z,21.20
2018-06-01T22:19:40.939Z,21.20
2018-06-01T22:22:08.476Z,21.10
2018-06-01T22:24:36.132Z,21.20
2018-06-01T22:27:04.415Z,21.10
2018-06-01T22:29:31.951Z,21.10
2018-06-01T22:31:59.475Z,21.10
2018-06-01T22:34:27.175Z,21.20
2018-06-01T22:36:54.761Z,21.20
2018-06-01T22:39:23.679Z,21.10
2018-06-01T22:41:51.196Z,21.10
2018-06-01T22:44:18.683Z,21.10
2018-06-01T22:46:47.383Z,21.10
2018-06-01T22:49:16.367Z,21.10
2018-06-01T22:51:44.681Z,21.00
2018-06-01T22:54:12.164Z,21.00
2018-06-01T22:56:39.659Z,21.00
2018-06-01T22:59:07.195Z,21.00
2018-06-01T23:01:34.857Z,21.00
2018-06-01T23:04:02.381Z,21.00
2018-06-01T23:06:29.923Z,21.00
2018-06-01T23:08:57.829Z,21.00
2018-06-01T23:11:25.339Z,21.00
2018-06-01T23:13:52.871Z,20.90
2018-06-01T23:16:20.699Z,20.90
2018-06-01T23:18:49.483Z,20.90
2018-06-01T23:21:17.875Z,20.80
2018-06-01T23:23:46.495Z,20.80
2018-06-01T23:26:14.041Z,20.80
2018-06-01T23:28:42.294Z,20.80
2018-06-01T23:31:09.942Z,20.70
2018-06-01T23:33:37.429Z,20.70
2018-06-01T23:36:05.018Z,20.70
2018-06-01T23:38:33.353Z,20.70
2018-06-01T23:41:00.851Z,20.70
2018-06-01T23:43:29.128Z,20.70
2018-06-01T23:45:57.392Z,20.70
2018-06-01T23:48:25.172Z,20.70
2018-06-01T23:50:53.462Z,20.70
2018-06-01T23:53:21.732Z,20.60
2018-06-01T23:55:49.988Z,20.60
2018-06-01T23:58:18.320Z,20.60
